createdAt,value
2022-12-14T00:02:18.317Z,15.50
2022-12-14T00:04:46.480Z,14.50
2022-12-14T00:07:15.999Z,14.60
2022-12-14T00:09:44.159Z,12.55
2022-12-14T00:12:12.348Z,15.57
2022-12-14T00:14:40.740Z,16.70
2022-12-14T00:17:09.603Z,17.63
2022-12-14T00:19:38.304Z,15.35
2022-12-14T00:22:06.453Z,15.20
2022-12-14T00:24:36.073Z,23.17
2022-12-14T00:27:04.196Z,19.27
2022-12-14T00:29:32.322Z,21.52
2022-12-14T00:32:00.497Z,18.15
2022-12-14T00:34:28.874Z,19.13
2022-12-14T00:36:57.121Z,16.08
2022-12-14T00:39:25.301Z,17.58
2022-12-14T00:41:54.967Z,13.55
2022-12-14T00:44:23.124Z,15.73
2022-12-14T00:46:51.349Z,15.13
2022-12-14T00:49:19.649Z,14.73
2022-12-14T00:51:47.949Z,16.35
2022-12-14T00:54:16.155Z,15.07
2022-12-14T00:56:44.336Z,15.70
2022-12-14T00:59:20.758Z,17.27
2022-12-14T01:01:52.446Z,14.40
2022-12-14T01:04:24.560Z,12.48
2022-12-14T01:06:54.111Z,15.93
2022-12-14T01:09:24.801Z,16.77
2022-12-14T01:11:53.206Z,14.98
2022-12-14T01:14:23.053Z,17.52
2022-12-14T01:16:51.182Z,15.20
2022-12-14T01:19:19.282Z,14.90
2022-12-14T01:21:49.582Z,16.70
2022-12-14T01:24:17.878Z,16.75
2022-12-14T01:26:48.209Z,17.13
2022-12-14T01:29:17.093Z,17.13
2022-12-14T01:31:48.555Z,14.38
2022-12-14T01:34:17.322Z,15.02
2022-12-14T01:36:45.500Z,13.68
2022-12-14T01:39:15.410Z,14.02
2022-12-14T01:41:45.332Z,15.07
2022-12-14T01:44:51.301Z,11.90
2022-12-14T01:47:25.544Z,13.60
2022-12-14T01:49:57.783Z,12.05
2022-12-14T01:52:31.180Z,12.18
2022-12-14T01:55:02.995Z,11.38
2022-12-14T01:57:36.423Z,13.55
2022-12-14T02:00:08.623Z,12.90
2022-12-14T02:02:39.844Z,10.80
2022-12-14T02:05:10.962Z,12.98
2022-12-14T02:07:40.519Z,11.50
2022-12-14T02:10:10.305Z,11.80
2022-12-14T02:12:42.845Z,11.48
2022-12-14T02:15:13.478Z,12.65
2022-12-14T02:17:44.908Z,14.23
2022-12-14T02:20:16.226Z,13.80
2022-12-14T02:23:32.535Z,11.63
2022-12-14T02:26:52.151Z,11.68
2022-12-14T02:29:49.704Z,11.40
2022-12-14T02:32:42.248Z,14.30
2022-12-14T02:35:19.864Z,13.00
2022-12-14T02:37:58.978Z,13.73
2022-12-14T02:40:34.465Z,14.80
2022-12-14T02:43:13.923Z,12.98
2022-12-14T02:45:47.860Z,14.00
2022-12-14T02:48:19.478Z,14.10
2022-12-14T02:50:57.294Z,16.33
2022-12-14T02:53:30.825Z,15.00
2022-12-14T02:56:03.256Z,13.57
2022-12-14T02:58:36.991Z,11.85
2022-12-14T03:01:09.421Z,15.75
2022-12-14T03:03:37.584Z,12.20
2022-12-14T03:06:15.011Z,11.77
2022-12-14T03:08:47.366Z,14.05
2022-12-14T03:11:22.041Z,15.73
2022-12-14T03:13:55.062Z,11.55
2022-12-14T03:16:28.347Z,14.00
2022-12-14T03:19:00.111Z,14.30
2022-12-14T03:21:31.963Z,13.10
2022-12-14T03:24:03.437Z,13.13
2022-12-14T03:26:35.997Z,12.63
2022-12-14T03:29:09.505Z,12.75
2022-12-14T03:31:48.903Z,16.65
2022-12-14T03:34:22.151Z,11.20
2022-12-14T03:36:55.473Z,13.35
2022-12-14T03:39:28.557Z,11.93
2022-12-14T03:42:03.775Z,13.82
2022-12-14T03:44:49.113Z,12.30
2022-12-14T03:47:31.840Z,13.27
2022-12-14T03:50:04.540Z,13.57
2022-12-14T03:52:38.785Z,14.20
2022-12-14T03:55:21.465Z,11.48
2022-12-14T03:58:06.879Z,12.32
2022-12-14T04:00:42.318Z,11.95
2022-12-14T04:03:22.804Z,13.20
2022-12-14T04:05:56.057Z,11.88
2022-12-14T04:08:41.691Z,12.88
2022-12-14T04:11:30.920Z,12.38
2022-12-14T04:14:24.171Z,13.77
2022-12-14T04:17:11.218Z,12.60
2022-12-14T04:19:45.069Z,12.90
2022-12-14T04:22:20.593Z,13.93
2022-12-14T04:25:13.388Z,12.07
2022-12-14T04:27:46.003Z,14.68
2022-12-14T04:30:14.617Z,13.25
2022-12-14T04:32:47.511Z,12.73
2022-12-14T04:35:22.274Z,13.50
2022-12-14T04:37:53.772Z,11.25
2022-12-14T04:40:25.674Z,12.23
2022-12-14T04:42:59.197Z,13.80
2022-12-14T04:45:33.490Z,11.90
2022-12-14T04:48:09.023Z,11.18
2022-12-14T04:50:43.664Z,14.52
2022-12-14T04:53:14.188Z,10.02
2022-12-14T04:55:49.935Z,12.48
2022-12-14T04:58:21.071Z,10.32
2022-12-14T05:01:02.905Z,10.48
2022-12-14T05:03:34.234Z,11.35
2022-12-14T05:06:16.154Z,16.15
2022-12-14T05:09:01.152Z,11.65
2022-12-14T05:14:25.882Z,16.08
2022-12-14T05:16:54.144Z,10.27
2022-12-14T05:19:26.327Z,11.85
2022-12-14T05:21:56.536Z,13.27
2022-12-14T05:24:24.796Z,10.35
2022-12-14T05:26:53.008Z,13.55
2022-12-14T05:29:21.228Z,10.85
2022-12-14T05:31:49.915Z,11.77
2022-12-14T05:34:18.463Z,11.30
2022-12-14T05:36:48.866Z,12.68
2022-12-14T05:39:18.467Z,13.32
2022-12-14T05:41:46.686Z,14.13
2022-12-14T05:44:14.898Z,13.45
2022-12-14T05:46:42.978Z,11.60
2022-12-14T05:49:13.748Z,11.93
2022-12-14T05:51:42.031Z,12.18
2022-12-14T05:54:10.345Z,14.45
2022-12-14T05:56:39.821Z,15.63
2022-12-14T05:59:07.965Z,12.93
2022-12-14T06:01:36.227Z,11.60
2022-12-14T06:04:04.835Z,12.15
2022-12-14T06:06:34.625Z,12.27
2022-12-14T06:09:02.797Z,11.75
2022-12-14T06:11:33.253Z,11.75
2022-12-14T06:14:02.727Z,13.00
2022-12-14T06:16:30.846Z,14.43
2022-12-14T06:19:00.952Z,13.20
2022-12-14T06:21:30.916Z,11.27
2022-12-14T06:23:59.722Z,11.18
2022-12-14T06:26:29.595Z,10.93
2022-12-14T06:28:58.897Z,12.57
2022-12-14T06:31:30.214Z,11.77
2022-12-14T06:34:00.367Z,12.45
2022-12-14T06:36:33.307Z,12.25
2022-12-14T06:39:06.649Z,12.68
2022-12-14T06:41:35.578Z,11.52
2022-12-14T06:44:07.123Z,11.63
2022-12-14T06:46:37.845Z,13.98
2022-12-14T06:49:07.255Z,14.77
2022-12-14T06:51:40.679Z,14.02
2022-12-14T06:54:10.529Z,14.80
2022-12-14T06:56:39.383Z,13.88
2022-12-14T06:59:09.305Z,12.15
2022-12-14T07:01:40.068Z,12.65
2022-12-14T07:04:09.339Z,14.23
2022-12-14T07:06:39.982Z,14.32
2022-12-14T07:09:09.686Z,13.35
2022-12-14T07:11:37.988Z,11.55
2022-12-14T07:14:10.653Z,15.18
2022-12-14T07:16:42.608Z,12.80
2022-12-14T07:19:12.280Z,13.50
2022-12-14T07:21:40.363Z,15.00
2022-12-14T07:24:09.787Z,16.98
2022-12-14T07:26:38.094Z,16.95
2022-12-14T07:29:06.682Z,12.75
2022-12-14T07:31:34.846Z,17.52
2022-12-14T07:34:04.335Z,16.17
2022-12-14T07:36:32.944Z,13.68
2022-12-14T07:39:01.124Z,11.15
2022-12-14T07:41:31.600Z,12.98
2022-12-14T07:44:01.196Z,13.05
2022-12-14T07:46:32.259Z,12.02
2022-12-14T07:49:01.326Z,11.93
2022-12-14T07:51:33.158Z,12.02
2022-12-14T07:54:02.479Z,14.63
2022-12-14T07:56:32.637Z,15.05
2022-12-14T07:59:02.101Z,21.48
2022-12-14T08:01:36.073Z,14.20
2022-12-14T08:04:07.475Z,13.77
2022-12-14T08:06:38.078Z,17.02
2022-12-14T08:09:07.469Z,13.75
2022-12-14T08:11:35.814Z,14.68
2022-12-14T08:14:05.533Z,14.48
2022-12-14T08:16:35.985Z,14.07
2022-12-14T08:19:04.793Z,14.85
2022-12-14T08:21:33.124Z,13.98
2022-12-14T08:24:02.468Z,13.65
2022-12-14T08:26:35.425Z,14.73
2022-12-14T08:29:05.147Z,15.30
2022-12-14T08:31:34.410Z,14.10
2022-12-14T08:34:05.386Z,18.67
2022-12-14T08:36:35.528Z,16.10
2022-12-14T08:39:07.774Z,14.93
2022-12-14T08:41:36.357Z,14.00
2022-12-14T08:44:06.085Z,16.42
2022-12-14T08:46:37.598Z,16.25
2022-12-14T08:49:05.990Z,13.75
2022-12-14T08:51:37.102Z,17.05
2022-12-14T08:54:06.781Z,16.08
2022-12-14T08:56:34.891Z,14.98
2022-12-14T08:59:03.040Z,15.45
2022-12-14T09:01:38.210Z,13.98
2022-12-14T09:04:08.530Z,12.40
2022-12-14T09:06:39.035Z,13.88
2022-12-14T09:09:16.002Z,13.75
2022-12-14T09:11:45.328Z,13.85
2022-12-14T09:14:13.582Z,13.65
2022-12-14T09:16:42.296Z,19.33
2022-12-14T09:19:10.598Z,16.20
2022-12-14T09:21:39.793Z,14.85
2022-12-14T09:24:10.823Z,13.63
2022-12-14T09:26:39.009Z,13.07
2022-12-14T09:29:07.242Z,11.80
2022-12-14T09:31:37.887Z,13.45
2022-12-14T09:34:06.078Z,14.07
2022-12-14T09:36:34.737Z,14.40
2022-12-14T09:39:03.252Z,12.65
2022-12-14T09:41:50.693Z,12.57
2022-12-14T09:44:32.710Z,15.32
2022-12-14T09:47:08.269Z,17.85
2022-12-14T09:49:42.506Z,13.52
2022-12-14T09:52:16.887Z,13.55
2022-12-14T09:54:49.816Z,13.15
2022-12-14T09:57:26.980Z,13.80
2022-12-14T09:59:55.613Z,15.80
2022-12-14T10:02:41.867Z,16.80
2022-12-14T10:05:36.086Z,13.70
2022-12-14T10:08:09.747Z,16.30
2022-12-14T10:10:47.639Z,17.50
2022-12-14T10:13:25.729Z,15.40
2022-12-14T10:16:05.824Z,16.00
2022-12-14T10:19:04.327Z,15.82
2022-12-14T10:21:44.059Z,16.35
2022-12-14T10:24:18.852Z,17.23
2022-12-14T10:26:52.644Z,15.23
2022-12-14T10:29:32.522Z,16.98
2022-12-14T10:32:08.901Z,17.10
2022-12-14T10:34:39.919Z,16.98
2022-12-14T10:37:26.999Z,17.20
2022-12-14T10:40:11.824Z,16.33
2022-12-14T10:42:49.677Z,16.45
2022-12-14T10:45:40.251Z,17.48
2022-12-14T10:48:27.043Z,15.85
2022-12-14T10:51:01.710Z,21.67
2022-12-14T10:53:40.170Z,14.38
2022-12-14T10:56:15.648Z,17.58
2022-12-14T10:58:43.784Z,18.88
2022-12-14T11:01:16.002Z,15.65
2022-12-14T11:03:55.280Z,19.58
2022-12-14T11:06:23.452Z,15.57
2022-12-14T11:08:51.583Z,17.52
2022-12-14T11:11:23.286Z,17.73
2022-12-14T11:14:07.100Z,16.58
2022-12-14T11:16:39.293Z,17.25
2022-12-14T11:19:16.997Z,16.88
2022-12-14T11:21:49.924Z,15.88
2022-12-14T11:24:29.445Z,16.88
2022-12-14T11:27:02.110Z,16.25
2022-12-14T11:29:34.065Z,17.02
2022-12-14T11:32:05.854Z,16.17
2022-12-14T11:34:38.290Z,16.83
2022-12-14T11:37:15.384Z,16.33
2022-12-14T11:39:44.138Z,19.30
2022-12-14T11:42:18.930Z,16.25
2022-12-14T11:44:50.915Z,15.27
2022-12-14T11:47:22.306Z,15.18
2022-12-14T11:49:54.282Z,21.05
2022-12-14T11:52:25.120Z,18.88
2022-12-14T11:55:11.810Z,18.73
2022-12-14T11:57:49.995Z,18.50
2022-12-14T12:00:27.539Z,19.45
2022-12-14T12:05:32.658Z,19.38
2022-12-14T12:08:03.089Z,17.70
2022-12-14T12:10:40.300Z,18.02
2022-12-14T12:13:22.402Z,17.95
2022-12-14T12:15:54.647Z,19.60
2022-12-14T12:18:30.694Z,19.08
2022-12-14T12:21:04.336Z,19.98
2022-12-14T12:23:36.840Z,21.90
2022-12-14T12:26:12.359Z,18.38
2022-12-14T12:28:46.271Z,19.65
2022-12-14T12:31:22.151Z,22.17
2022-12-14T12:33:57.540Z,17.65
2022-12-14T12:36:25.829Z,20.45
2022-12-14T12:39:03.253Z,18.23
2022-12-14T12:41:44.574Z,21.25
2022-12-14T12:44:25.598Z,19.52
2022-12-14T12:47:24.342Z,19.35
2022-12-14T12:50:04.937Z,17.95
2022-12-14T12:52:37.313Z,17.42
2022-12-14T12:55:12.446Z,19.95
2022-12-14T12:57:44.524Z,19.23
2022-12-14T13:00:19.035Z,22.02
2022-12-14T13:02:50.944Z,16.98
2022-12-14T13:05:45.568Z,17.95
2022-12-14T13:08:23.408Z,22.63
2022-12-14T13:13:46.476Z,19.73
2022-12-14T13:16:21.572Z,18.73
2022-12-14T13:19:13.206Z,19.55
2022-12-14T13:21:51.785Z,20.13
2022-12-14T13:24:21.899Z,22.88
2022-12-14T13:27:17.190Z,22.38
2022-12-14T13:30:03.570Z,19.52
2022-12-14T13:32:47.844Z,24.13
2022-12-14T13:35:32.389Z,21.23
2022-12-14T13:38:32.649Z,21.08
2022-12-14T13:41:20.554Z,23.23
2022-12-14T13:44:36.161Z,22.35
2022-12-14T13:47:15.864Z,20.83
2022-12-14T13:50:18.454Z,26.95
2022-12-14T13:52:43.758Z,21.85
2022-12-14T13:55:28.323Z,24.83
2022-12-14T13:58:10.031Z,20.00
2022-12-14T14:00:57.418Z,22.27
2022-12-14T14:03:53.262Z,21.50
2022-12-14T14:06:37.554Z,19.55
2022-12-14T14:09:42.906Z,22.88
2022-12-14T14:12:38.457Z,24.83
2022-12-14T14:15:51.950Z,21.15
2022-12-14T14:18:31.046Z,21.13
2022-12-14T14:21:32.959Z,18.30
2022-12-14T14:24:20.154Z,25.42
2022-12-14T14:27:09.494Z,22.25
2022-12-14T14:29:45.711Z,24.35
2022-12-14T14:32:36.808Z,22.13
2022-12-14T14:35:08.149Z,20.75
2022-12-14T14:37:38.596Z,22.50
2022-12-14T14:40:33.508Z,19.90
2022-12-14T14:43:23.749Z,25.10
2022-12-14T14:45:59.122Z,27.77
2022-12-14T14:48:34.309Z,24.23
2022-12-14T14:53:36.295Z,27.40
2022-12-14T14:56:35.470Z,25.92
2022-12-14T15:01:56.490Z,23.65
2022-12-14T15:04:30.947Z,23.85
2022-12-14T15:07:03.525Z,23.80
2022-12-14T15:09:34.100Z,24.20
2022-12-14T15:12:06.908Z,28.13
2022-12-14T15:14:43.231Z,23.33
2022-12-14T15:17:22.890Z,27.92
2022-12-14T15:19:51.975Z,24.00
2022-12-14T15:22:22.566Z,26.80
2022-12-14T15:24:54.016Z,24.33
2022-12-14T15:27:27.314Z,25.30
2022-12-14T15:29:57.459Z,27.42
2022-12-14T15:32:27.809Z,28.30
2022-12-14T15:34:58.818Z,26.80
2022-12-14T15:37:31.018Z,26.60
2022-12-14T15:40:05.570Z,30.15
2022-12-14T15:42:33.956Z,32.72
2022-12-14T15:45:14.320Z,29.10
2022-12-14T15:47:43.848Z,25.65
2022-12-14T15:50:29.606Z,26.70
2022-12-14T15:53:08.811Z,28.17
2022-12-14T15:55:39.955Z,23.25
2022-12-14T15:58:14.961Z,28.60
2022-12-14T16:00:46.707Z,28.23
2022-12-14T16:03:24.809Z,26.27
2022-12-14T16:05:53.863Z,28.60
2022-12-14T16:08:22.969Z,28.55
2022-12-14T16:10:52.477Z,30.25
2022-12-14T16:13:24.903Z,30.83
2022-12-14T16:15:54.259Z,26.73
2022-12-14T16:18:23.936Z,31.63
2022-12-14T16:20:58.306Z,29.77
2022-12-14T16:23:31.681Z,29.70
2022-12-14T16:26:03.307Z,24.02
2022-12-14T16:28:33.825Z,26.98
2022-12-14T16:31:06.051Z,33.30
2022-12-14T16:33:37.378Z,51.72
2022-12-14T16:36:11.491Z,30.17
2022-12-14T16:38:43.461Z,32.05
2022-12-14T16:41:11.685Z,31.35
2022-12-14T16:43:42.534Z,26.08
2022-12-14T16:46:17.424Z,30.30
2022-12-14T16:49:09.478Z,29.27
2022-12-14T16:54:30.649Z,26.20
2022-12-14T16:57:02.147Z,29.98
2022-12-14T16:59:41.118Z,26.00
2022-12-14T17:02:28.019Z,26.80
2022-12-14T17:04:58.889Z,28.70
2022-12-14T17:07:29.807Z,29.20
2022-12-14T17:09:58.083Z,23.05
2022-12-14T17:12:27.587Z,28.55
2022-12-14T17:14:55.875Z,27.23
2022-12-14T17:17:30.044Z,26.35
2022-12-14T17:19:59.570Z,26.55
2022-12-14T17:22:31.652Z,32.28
2022-12-14T17:25:01.065Z,28.00
2022-12-14T17:27:30.465Z,26.10
2022-12-14T17:29:58.752Z,31.08
2022-12-14T17:32:31.283Z,27.98
2022-12-14T17:35:01.144Z,28.17
2022-12-14T17:37:36.504Z,28.05
2022-12-14T17:40:08.091Z,29.27
2022-12-14T17:42:38.615Z,25.33
2022-12-14T17:45:19.626Z,26.85
2022-12-14T17:47:47.919Z,26.35
2022-12-14T17:50:19.033Z,27.98
2022-12-14T17:52:48.089Z,30.30
2022-12-14T17:55:18.527Z,32.15
2022-12-14T17:57:46.915Z,31.05
2022-12-14T18:00:40.408Z,27.38
2022-12-14T18:03:10.841Z,30.67
2022-12-14T18:05:48.173Z,33.72
2022-12-14T18:08:16.996Z,35.08
2022-12-14T18:10:45.786Z,35.25
2022-12-14T18:13:14.511Z,36.08
2022-12-14T18:15:49.761Z,37.50
2022-12-14T18:18:19.111Z,35.08
2022-12-14T18:20:51.170Z,37.90
2022-12-14T18:23:20.084Z,39.10
2022-12-14T18:25:50.557Z,38.60
2022-12-14T18:28:19.347Z,39.97
2022-12-14T18:30:50.976Z,36.10
2022-12-14T18:33:28.895Z,38.63
2022-12-14T18:35:58.668Z,33.53
2022-12-14T18:38:28.994Z,37.05
2022-12-14T18:41:00.189Z,34.28
2022-12-14T18:43:29.765Z,35.80
2022-12-14T18:45:58.408Z,34.75
2022-12-14T18:48:26.980Z,43.13
2022-12-14T18:50:56.181Z,37.58
2022-12-14T18:53:42.219Z,39.33
2022-12-14T18:56:12.650Z,38.17
2022-12-14T18:58:46.507Z,37.03
2022-12-14T19:01:21.409Z,38.90
2022-12-14T19:03:50.501Z,38.05
2022-12-14T19:06:43.567Z,37.95
2022-12-14T19:09:13.503Z,36.90
2022-12-14T19:11:44.748Z,36.90
2022-12-14T19:14:13.485Z,40.00
2022-12-14T19:16:42.868Z,35.03
2022-12-14T19:19:10.983Z,34.78
2022-12-14T19:21:39.245Z,44.75
2022-12-14T19:24:14.435Z,37.97
2022-12-14T19:26:42.953Z,43.13
2022-12-14T19:29:11.412Z,37.78
2022-12-14T19:31:41.874Z,42.78
2022-12-14T19:34:13.178Z,36.70
2022-12-14T19:36:50.974Z,37.13
2022-12-14T19:39:20.493Z,34.17
2022-12-14T19:41:49.657Z,37.60
2022-12-14T19:44:17.962Z,43.55
2022-12-14T19:46:55.586Z,43.67
2022-12-14T19:49:39.305Z,39.90
2022-12-14T19:52:07.960Z,39.78
2022-12-14T19:54:39.862Z,40.38
2022-12-14T19:57:08.837Z,40.35
2022-12-14T19:59:40.126Z,39.22
2022-12-14T20:02:17.208Z,41.63
2022-12-14T20:04:45.434Z,40.40
2022-12-14T20:07:14.329Z,41.88
2022-12-14T20:09:43.878Z,46.13
2022-12-14T20:12:12.733Z,43.58
2022-12-14T20:14:50.118Z,40.30
2022-12-14T20:17:18.433Z,42.22
2022-12-14T20:19:47.729Z,42.45
2022-12-14T20:22:15.942Z,42.05
2022-12-14T20:24:47.120Z,42.53
2022-12-14T20:27:15.831Z,45.38
2022-12-14T20:29:44.475Z,38.67
2022-12-14T20:32:12.946Z,44.03
2022-12-14T20:34:42.630Z,44.40
2022-12-14T20:37:10.930Z,44.05
2022-12-14T20:39:39.064Z,39.53
2022-12-14T20:42:09.101Z,42.30
2022-12-14T20:44:37.469Z,44.38
2022-12-14T20:47:05.714Z,38.65
2022-12-14T20:49:33.978Z,44.90
2022-12-14T20:52:02.216Z,44.20
2022-12-14T20:54:30.443Z,43.78
2022-12-14T20:56:58.635Z,42.83
2022-12-14T20:59:28.182Z,42.05
2022-12-14T21:01:57.020Z,46.80
2022-12-14T21:04:26.429Z,45.33
2022-12-14T21:06:55.026Z,42.95
2022-12-14T21:09:23.370Z,41.45
2022-12-14T21:12:09.951Z,41.72
2022-12-14T21:14:42.543Z,42.92
2022-12-14T21:17:12.575Z,42.60
2022-12-14T21:19:41.710Z,43.33
2022-12-14T21:22:16.064Z,40.50
2022-12-14T21:25:04.641Z,41.75
2022-12-14T21:27:34.680Z,41.17
2022-12-14T21:30:08.760Z,41.97
2022-12-14T21:32:37.710Z,43.38
2022-12-14T21:35:06.962Z,43.10
2022-12-14T21:37:35.348Z,36.60
2022-12-14T21:40:03.902Z,36.75
2022-12-14T21:42:31.150Z,43.63
2022-12-14T21:44:59.348Z,43.85
2022-12-14T21:47:30.506Z,45.78
2022-12-14T21:49:58.866Z,43.42
2022-12-14T21:52:28.932Z,39.30
2022-12-14T21:54:58.916Z,47.13
2022-12-14T21:57:49.845Z,39.47
2022-12-14T22:00:21.626Z,40.20
2022-12-14T22:02:53.493Z,40.72
2022-12-14T22:05:21.713Z,42.88
2022-12-14T22:07:49.803Z,37.47
2022-12-14T22:10:22.991Z,38.35
2022-12-14T22:12:53.189Z,42.28
2022-12-14T22:15:21.416Z,38.45
2022-12-14T22:17:50.669Z,37.97
2022-12-14T22:20:20.352Z,39.97
2022-12-14T22:23:00.846Z,38.85
2022-12-14T22:25:32.612Z,32.47
2022-12-14T22:28:22.899Z,36.13
2022-12-14T22:31:02.574Z,36.45
2022-12-14T22:33:36.068Z,33.90
2022-12-14T22:36:06.181Z,35.88
2022-12-14T22:38:39.647Z,33.97
2022-12-14T22:41:08.659Z,34.30
2022-12-14T22:43:41.639Z,31.33
2022-12-14T22:46:12.443Z,33.85
2022-12-14T22:48:43.072Z,34.15
2022-12-14T22:51:15.436Z,35.60
2022-12-14T22:53:44.935Z,34.33
2022-12-14T22:56:21.230Z,30.08
2022-12-14T22:58:55.363Z,32.40
2022-12-14T23:01:23.655Z,31.92
2022-12-14T23:03:53.276Z,28.52
2022-12-14T23:06:24.990Z,33.85
2022-12-14T23:09:10.769Z,33.22
2022-12-14T23:11:56.334Z,29.15
2022-12-14T23:14:42.222Z,33.08
2022-12-14T23:17:27.821Z,29.65
2022-12-14T23:20:13.618Z,31.73
2022-12-14T23:23:00.814Z,28.65
2022-12-14T23:28:32.063Z,31.45
2022-12-14T23:31:18.154Z,32.72
2022-12-14T23:34:03.733Z,31.67
2022-12-14T23:36:49.325Z,34.08
2022-12-14T23:39:36.672Z,31.48
2022-12-14T23:42:22.963Z,29.77
2022-12-14T23:45:08.608Z,30.20
2022-12-14T23:47:54.317Z,29.33
2022-12-14T23:50:39.665Z,29.23
2022-12-14T23:53:25.597Z,32.50
2022-12-14T23:56:12.778Z,30.05
